関西国際空港の過去48時間の天気

関西国際空港 (Kansai intl)

現在時刻: 11/24 00:13 JST (11/23 15:13 UTC) 以下の時間は現地時間です。

過去48時間のMETAR気象情報
時間 風向 風速(m/s) 視程 気温(℃) 湿度(%) 気圧(hPa) 天気現象
24 00:00 西北西 9 10km以上 9 53 1018
23 23:30 西北西 9 10km以上 9 53 1018
23 23:00 西北西 10 10km以上 9 50 1018
23 22:30 西北西 9 10km以上 9 46 1018
23 22:00 西北西 8 10km以上 9 50 1018
23 21:30 西北西 10 10km以上 9 50 1018
23 21:08 西北西 9 10km以上 9 46 1018
23 21:00 西北西 9 10km以上 9 46 1018
23 20:30 西北西 10 10km以上 10 43 1018
23 20:00 西北西 10 10km以上 10 40 1017
23 19:30 西北西 11 10km以上 10 43 1017
23 19:15 北西 8 10km以上 10 40 1017
23 19:00 北西 10 10km以上 10 43 1017
23 18:30 北北西 10 10km以上 11 40 1016
23 18:00 北西 12 10km以上 11 40 1015
23 17:30 北西 12 10km以上 11 40 1015
23 17:00 北西 13 10km以上 12 35 1014
23 16:30 西北西 12 10km以上 12 35 1013
23 16:00 西北西 12 10km以上 12 38 1013
23 15:30 西北西 13 10km以上 13 41 1012
23 15:00 西北西 10 10km以上 13 44 1012
23 14:30 西北西 11 10km以上 14 41 1012
23 14:00 西北西 10 10km以上 14 44 1012
23 13:30 北西 11 10km以上 14 47 1012
23 13:01 西北西 11 10km以上 13 51 1012
23 13:00 西北西 11 10km以上 13 51 1012
23 12:44 西北西 10 10km以上 14 47 1011
23 12:30 北西 12 10km以上 14 47 1011
23 12:00 北西 12 10km以上 14 47 1011
23 11:30 北西 11 10km以上 14 55 1011
23 11:00 北西 12 10km以上 14 55 1011
23 10:30 北西 11 10km以上 14 55 1011
23 10:21 北西 10 10km以上 14 59 1011
23 10:00 西北西 9 10km以上 13 62 1011
23 09:30 北西 7 10km以上 13 67 1010
23 09:00 北西 9 10km以上 12 82 1011
23 08:30 北西 10 10km以上 12 88 1010
23 08:00 北北西 9 10km以上 12 82 1010
23 07:30 北西 9 10km以上 12 82 1010
23 07:00 北西 7 10km以上 12 88 1010
23 06:30 北西 6 10km以上 12 88 1010
23 06:00 北西 6 10km以上 12 82 1010
23 05:30 北北西 4 10km以上 12 82 1010
23 05:00 北西 5 10km以上 12 82 1011 弱い雨
23 04:30 北西 6 10km以上 12 88 1011 弱い雨
23 04:00 北西 5 9,000m 12 88 1011 弱い雨
23 03:41 4 7,000m 12 88 1011 弱い雨
23 03:30 北西 4 8,000m 12 88 1011 弱い雨
23 03:19 北西 4 5,000m 12 82 1011 弱い雨 もや
23 03:06 北北西 4 6,000m 12 82 1011 弱い雨
23 03:00 北北西 5 9,000m 12 82 1012 弱い雨
23 02:30 北北西 4 9,000m 12 94 1011 弱い雨
23 02:25 北北西 4 7,000m 12 94 1012 弱い雨
23 02:20 北北西 4 3,900m 11 100 1012 弱い雨 もや
23 02:09 4 5,000m 12 94 1012 弱い雨 もや
23 02:00 4 3,500m 11 100 1012 弱い雨 もや
23 01:30 3 4,500m 11 100 1013 雨 もや
23 01:25 3 4,100m 11 100 1012 弱い雨 もや
23 01:17 不定 1 2,200m 11 100 1012 弱い雨 もや
23 01:00 東北東 2 1,900m 11 100 1012 弱い雨 もや
23 00:43 東北東 3 2,800m 11 100 1012 弱い雨 もや
23 00:30 東北東 2 1,700m 11 100 1012 弱い雨 もや
23 00:14 東北東 2 2,600m 12 94 1012 弱い雨 もや
23 00:05 2 2,300m 11 100 1012 弱い雨 もや
23 00:00 2 2,100m 12 94 1012 弱い雨 もや
22 23:47 北北東 4 2,500m 12 94 1012 弱い雨 もや
22 23:38 4 4,500m 12 94 1012 弱い雨 もや
22 23:00 北北西 5 10km以上 12 94 1013 弱い雨
22 22:30 北北西 5 10km以上 12 94 1013 弱いしゅう雨
22 22:00 北北西 5 8,000m 12 94 1014 弱いしゅう雨
22 21:46 北北西 4 8,000m 12 94 1014 弱いしゅう雨
22 21:30 北北西 5 9,000m 12 94 1014 弱いしゅう雨
22 21:00 北北西 5 10km以上 12 88 1015 弱いしゅう雨
22 20:30 北西 7 10km以上 12 94 1015 弱いしゅう雨
22 20:00 北北西 5 10km以上 12 88 1015 弱いしゅう雨
22 19:30 4 10km以上 12 88 1015 弱いしゅう雨
22 19:00 4 10km以上 12 88 1015 弱いしゅう雨
22 18:30 北北西 6 10km以上 13 82 1015 弱いしゅう雨
22 18:00 北西 6 10km以上 13 82 1015 弱いしゅう雨
22 17:30 北西 6 10km以上 13 77 1015 弱いしゅう雨
22 17:00 北北西 5 10km以上 14 67 1015 弱いしゅう雨
22 16:30 北東 2 10km以上 14 63 1015 周辺でしゅう雨
22 16:00 北東 3 10km以上 14 67 1015
22 15:30 北北東 3 10km以上 14 63 1015
22 15:00 北東 3 10km以上 14 63 1015
22 14:30 北東 4 10km以上 14 67 1015
22 14:00 北東 4 10km以上 14 67 1015 弱いしゅう雨
22 13:30 北東 5 10km以上 14 63 1016
22 13:00 北東 4 10km以上 13 62 1017
22 12:30 東北東 5 10km以上 13 67 1017
22 12:00 東北東 5 10km以上 13 67 1018
22 11:30 北東 4 10km以上 12 71 1019
22 11:00 東北東 4 10km以上 11 71 1019
22 10:30 北東 4 10km以上 11 67 1020
22 10:00 東北東 4 10km以上 10 76 1021
22 09:30 東北東 5 10km以上 10 76 1022
22 09:00 東北東 4 10km以上 8 81 1022
22 08:30 5 10km以上 8 87 1022
22 08:00 東北東 5 10km以上 8 81 1023
22 07:30 東北東 4 10km以上 8 81 1023
22 07:00 東北東 3 10km以上 7 81 1023
22 06:30 東北東 5 10km以上 7 87 1022
22 06:00 5 10km以上 8 81 1022
22 05:30 東北東 5 10km以上 7 87 1022
22 05:00 東北東 5 10km以上 6 87 1023
22 04:30 東北東 4 10km以上 7 81 1023
22 04:00 東北東 4 10km以上 6 87 1023
22 03:30 東北東 4 10km以上 6 87 1023
22 03:00 4 10km以上 7 81 1023
22 02:30 東北東 4 10km以上 7 81 1024
22 02:00 4 10km以上 8 81 1024
22 01:30 3 10km以上 6 81 1024
22 01:00 3 10km以上 7 81 1024
22 00:30 3 10km以上 6 81 1025
RJBB 231500Z AUTO 29017KT 9999 FEW044 09/00 Q1018 NOSIG
RJBB 231430Z AUTO 29017KT 9999 FEW044 09/M00 Q1018 NOSIG
RJBB 231400Z AUTO 29019KT 9999 NCD 09/M01 Q1018 NOSIG
RJBB 231330Z 30018KT 9999 FEW025 09/M02 Q1018 NOSIG
RJBB 231300Z 29015KT 9999 FEW025 09/M01 Q1018 NOSIG
RJBB 231230Z 30019KT 9999 FEW025 09/M01 Q1018 NOSIG
RJBB 231208Z 29017G27KT 9999 FEW025 09/M02 Q1018 RMK 1CU025 A3007
RJBB 231200Z 30017KT 9999 FEW025 09/M02 Q1018 NOSIG
RJBB 231130Z 30019KT 9999 FEW025 10/M02 Q1018 NOSIG
RJBB 231100Z 30020KT 9999 FEW025 SCT050 10/M03 Q1017 NOSIG
RJBB 231030Z 30022KT 9999 FEW025 10/M02 Q1017 NOSIG
RJBB 231015Z 31016G26KT 270V330 9999 FEW025 10/M03 Q1017 RMK 1CU025 A3003
RJBB 231000Z 31020KT 9999 FEW025 10/M02 Q1017 NOSIG
RJBB 230930Z 33020KT 9999 FEW025 11/M02 Q1016 BECMG 31020KT
RJBB 230900Z 32023KT 9999 FEW025 11/M02 Q1015 BECMG 31020KT
RJBB 230830Z 32024KT 9999 FEW025 11/M02 Q1015 NOSIG
RJBB 230800Z 31026KT 9999 FEW025 12/M03 Q1014 NOSIG
RJBB 230730Z 30023KT 9999 FEW025 12/M03 Q1013 TEMPO 31025G36KT
RJBB 230700Z 30024KT 9999 FEW025 12/M02 Q1013 TEMPO 31025G36KT
RJBB 230630Z 30025KT 9999 FEW025 13/M00 Q1012 TEMPO 31025G36KT
RJBB 230600Z 30019KT 9999 FEW025 SCT045 13/01 Q1012 TEMPO 31025G36KT
RJBB 230530Z 29022KT 9999 FEW025 14/01 Q1012 TEMPO 31025G36KT
RJBB 230500Z 29020KT 9999 FEW025 14/02 Q1012 TEMPO 31025G36KT
RJBB 230430Z 31021KT 9999 FEW025 BKN/// 14/03 Q1012 TEMPO 31025G36KT
RJBB 230401Z 30022G32KT 9999 FEW025 BKN045 BKN/// 13/03 Q1012 RMK 1CU025 5CU045 A2989
RJBB 230400Z 30021KT 9999 FEW025 BKN045 BKN/// 13/03 Q1012 TEMPO 31025G36KT
RJBB 230344Z 29020G31KT 9999 FEW025 SCT045 BKN/// 14/03 Q1011 RMK 1CU025 4CU045 A2988
RJBB 230330Z 31023KT 9999 FEW025 SCT045 BKN/// 14/03 Q1011 TEMPO 31025G36KT
RJBB 230300Z 31024KT 9999 FEW025 SCT045 14/03 Q1011 TEMPO 31025G36KT
RJBB 230230Z 31021KT 9999 FEW020 14/05 Q1011 TEMPO 31025G36KT
RJBB 230200Z 31024KT 9999 FEW020 14/05 Q1011 TEMPO 31025G36KT
RJBB 230130Z 31022KT 9999 FEW015 SCT120 14/05 Q1011 TEMPO 31024G35KT
RJBB 230121Z 31020G31KT 9999 FEW015 SCT120 14/06 Q1011 RMK 1CU015 3AC120 A2987
RJBB 230100Z 30017KT 9999 FEW015 SCT120 13/06 Q1011 NOSIG
RJBB 230030Z 32013KT 300V050 9999 FEW015 SCT120 13/07 Q1010 BECMG TL0100 31017KT
RJBB 230000Z 32017KT 9999 FEW015 SCT150 12/09 Q1011 BECMG TL0100 31017KT
RJBB 222330Z 32019KT 9999 FEW012 SCT/// 12/10 Q1010 BECMG TL0100 31017KT
RJBB 222300Z 33017KT 9999 FEW010 SCT020 12/09 Q1010 NOSIG
RJBB 222230Z 32017KT 9999 FEW010 12/09 Q1010 BECMG 33010KT
RJBB 222200Z 32013KT 9999 FEW012 SCT020 BKN170 12/10 Q1010 BECMG 33010KT
RJBB 222130Z 32012KT 9999 FEW008 SCT015 BKN130 12/10 Q1010 BECMG 33010KT
RJBB 222100Z 32011KT 280V340 9999 FEW008 SCT012 BKN120 12/09 Q1010 BECMG 33010KT
RJBB 222030Z AUTO 33008KT 9999 SCT015 BKN019 BKN100 12/09 Q1010 NOSIG
RJBB 222000Z AUTO 32009KT 9999 -RA FEW014 SCT021 BKN060 12/09 Q1011 BECMG TL2130 34010KT
RJBB 221930Z AUTO 32012KT 9999 -RA FEW013 SCT050 BKN060 12/10 Q1011 NOSIG
RJBB 221900Z AUTO 32009KT 9000 -RA FEW009 SCT013 BKN050 12/10 Q1011 TEMPO 4000 -SHRA BR FEW005 BKN008 BKN015
RJBB 221841Z AUTO 35008KT 7000 -RA BKN009 BKN013 OVC021 12/10 Q1011 RMK A2987
RJBB 221830Z AUTO 32008KT 8000 -RA FEW012 BKN013 BKN019 12/10 Q1011 TEMPO 4000 -SHRA BR FEW005 BKN008 BKN015
RJBB 221819Z AUTO 32008KT 250V010 5000 -RA BR BKN013 BKN019 OVC045 12/09 Q1011 RMK A2988
RJBB 221806Z AUTO 33008KT 290V360 6000 -RA SCT014 BKN017 BKN039 12/09 Q1011 RMK A2987
RJBB 221800Z AUTO 33009KT 9000 -RA BKN014 BKN022 OVC041 12/09 Q1012 TEMPO 4000 -SHRA BR FEW005 BKN008 BKN015
RJBB 221730Z AUTO 34008KT 320V040 9000 -RA FEW007 SCT010 BKN018 12/11 Q1011 TEMPO 3000 -SHRA BR FEW005 BKN008 BKN015
RJBB 221725Z AUTO 34008KT 320V040 7000 -RA FEW007 SCT009 BKN010 12/11 Q1012 RMK A2988
RJBB 221720Z AUTO 34008KT 3900 -RA BR FEW007 SCT009 BKN013 11/11 Q1012 RMK A2989
RJBB 221709Z AUTO 35008KT 5000 -RA BR FEW007 SCT009 BKN010 12/11 Q1012 RMK A2990
RJBB 221700Z AUTO 35008KT 3500 -RA BR BKN009 BKN010 BKN012 11/11 Q1012 NOSIG
RJBB 221630Z AUTO 35006KT 4500 RA BR FEW005 SCT009 BKN010 11/11 Q1013 TEMPO FEW005 BKN008 BKN015
RJBB 221625Z AUTO 36005KT 330V070 4100 -RA BR FEW005 SCT007 BKN009 11/11 Q1012 RMK A2990
RJBB 221617Z AUTO VRB02KT 2200 -RA BR FEW005 BKN007 BKN009 11/11 Q1012 RMK A2990
RJBB 221600Z AUTO 07004KT 1900 -RA BR SCT006 BKN009 BKN010 11/11 Q1012 NOSIG
RJBB 221543Z AUTO 06006KT 2800 -RA BR FEW004 BKN006 BKN009 11/11 Q1012 RMK A2990
RJBB 221530Z AUTO 06004KT 1700 -RA BR SCT006 BKN009 BKN010 11/11 Q1012 NOSIG
RJBB 221514Z AUTO 07003KT 2600 -RA BR SCT007 BKN009 BKN010 12/11 Q1012 RMK A2990
RJBB 221505Z AUTO 08004KT 2300 -RA BR BKN007 BKN010 OVC020 11/11 Q1012 RMK A2990
RJBB 221500Z AUTO 10004KT 2100 -RA BR SCT007 BKN010 BKN013 12/11 Q1012 TEMPO FEW005 BKN008 BKN015
RJBB 221447Z AUTO 03007KT 350V090 2500 -RA BR FEW010 SCT013 OVC019 12/11 Q1012 RMK A2990
RJBB 221438Z AUTO 01008KT 4500 -RA BR SCT013 OVC020 12/11 Q1012 RMK A2990
RJBB 221400Z AUTO 34010KT 300V010 9999 -RA FEW008 OVC018 12/11 Q1013 TEMPO 4000 -SHRA BR FEW005 BKN008 BKN015
RJBB 221330Z 34010KT 9999 -SHRA FEW002 SCT005 BKN010 12/11 Q1013 TEMPO 4000 -SHRA BR FEW005 BKN008 BKN015
RJBB 221300Z 34009KT 8000 -SHRA FEW002 SCT005 BKN008 12/11 Q1014 TEMPO 4000 -SHRA BR
RJBB 221246Z 34008KT 8000 -SHRA FEW002 SCT006 BKN010 12/11 Q1014 RMK 1ST002 3ST006 5ST010 A2995
RJBB 221230Z 34009KT 290V100 9000 -SHRA FEW002 BKN020 12/11 Q1014 TEMPO 4000 -SHRA BR FEW005 BKN008 BKN015
RJBB 221200Z 33010KT 9999 -SHRA FEW002 SCT010 BKN020 12/10 Q1015 TEMPO 4000 -SHRA BR FEW005 BKN008 BKN015
RJBB 221130Z 32014KT 9999 -SHRA FEW005 SCT010 BKN015 12/11 Q1015 TEMPO FM1200 4000 -SHRA BR FEW005 BKN008 BKN015 BECMG 34009KT
RJBB 221100Z 33010KT 9999 -SHRA FEW005 SCT010 BKN020 12/10 Q1015 NOSIG
RJBB 221030Z 35007KT 320V040 9999 -SHRA FEW008 SCT020 BKN040 12/10 Q1015 TEMPO SHRA
RJBB 221000Z 35008KT 9999 -SHRA FEW020 SCT030 BKN040 12/10 Q1015 TEMPO 4000 SHRA BR
RJBB 220930Z 33011KT 9999 -SHRA FEW020 SCT030 BKN040 13/10 Q1015 NOSIG
RJBB 220900Z 32011KT 270V350 9999 -SHRA FEW020 SCT035 BKN045 13/10 Q1015 TEMPO FM1000 4000 SHRA BR BECMG 02006KT
RJBB 220830Z 32011KT 9999 -SHRA FEW020 SCT035 BKN045 13/09 Q1015 TEMPO FM0830 SHRA BECMG 02006KT
RJBB 220800Z 34009KT 9999 -SHRA FEW020 SCT035 BKN070 14/08 Q1015 TEMPO FM0830 SHRA
RJBB 220730Z 05004KT 350V070 9999 VCSH FEW025 BKN080 14/07 Q1015 NOSIG
RJBB 220700Z 05005KT 9999 FEW025 BKN080 14/08 Q1015 NOSIG
RJBB 220630Z 02006KT 9999 FEW025 SCT080 BKN/// 14/07 Q1015 NOSIG
RJBB 220600Z 04005KT 9999 FEW025 SCT080 BKN150 14/07 Q1015 NOSIG
RJBB 220530Z 04008KT 9999 FEW025 BKN080 BKN/// 14/08 Q1015 NOSIG
RJBB 220500Z 05008KT 9999 -SHRA FEW025 SCT045 BKN/// 14/08 Q1015 NOSIG
RJBB 220430Z 05010KT 9999 FEW025 SCT120 BKN150 14/07 Q1016 NOSIG
RJBB 220400Z 05008KT 9999 FEW025 SCT120 BKN150 13/06 Q1017 NOSIG
RJBB 220330Z 07009KT 9999 FEW025 SCT120 BKN150 13/07 Q1017 NOSIG
RJBB 220300Z 06009KT 9999 FEW025 SCT120 BKN150 13/07 Q1018 NOSIG
RJBB 220230Z 05008KT 9999 FEW025 BKN150 BKN/// 12/07 Q1019 NOSIG
RJBB 220200Z 06008KT 9999 FEW030 BKN150 BKN/// 11/06 Q1019 NOSIG
RJBB 220130Z 05008KT 9999 FEW030 SCT150 BKN/// 11/05 Q1020 NOSIG
RJBB 220100Z 07007KT 9999 FEW030 BKN/// 10/06 Q1021 NOSIG
RJBB 220030Z 07009KT 9999 FEW030 BKN/// 10/06 Q1022 NOSIG
RJBB 220000Z 07008KT 9999 FEW025 BKN/// 08/05 Q1022 NOSIG
RJBB 212330Z 08009KT 9999 FEW025 SCT170 BKN/// 08/06 Q1022 NOSIG
RJBB 212300Z 07010KT 9999 FEW025 SCT170 BKN/// 08/05 Q1023 NOSIG
RJBB 212230Z 07008KT 9999 FEW020 SCT045 BKN/// 08/05 Q1023 NOSIG
RJBB 212200Z 07006KT 9999 FEW020 BKN045 BKN/// 07/04 Q1023 NOSIG
RJBB 212130Z 07009KT 9999 FEW025 BKN/// 07/05 Q1022 NOSIG
RJBB 212100Z 08010KT 9999 FEW030 SCT040 08/05 Q1022 NOSIG
RJBB 212030Z AUTO 07010KT 9999 NSC 07/05 Q1022 NOSIG
RJBB 212000Z AUTO 06009KT 9999 NSC 06/04 Q1023 NOSIG
RJBB 211930Z AUTO 07008KT 9999 NCD 07/04 Q1023 NOSIG
RJBB 211900Z AUTO 07007KT 9999 NCD 06/04 Q1023 NOSIG
RJBB 211830Z AUTO 07007KT 9999 NCD 06/04 Q1023 NOSIG
RJBB 211800Z AUTO 08008KT 9999 NCD 07/04 Q1023 NOSIG
RJBB 211730Z AUTO 07007KT 9999 NCD 07/04 Q1024 NOSIG
RJBB 211700Z AUTO 08007KT 9999 NCD 08/05 Q1024 NOSIG
RJBB 211630Z AUTO 08005KT 9999 NSC 06/03 Q1024 NOSIG
RJBB 211600Z AUTO 09005KT 9999 NSC 07/04 Q1024 NOSIG
RJBB 211530Z AUTO 08005KT 9999 NSC 06/03 Q1025 NOSIG